createdAt,value
2023-02-09T00:01:24.420Z,45.79
2023-02-09T00:03:51.532Z,45.27
2023-02-09T00:06:19.784Z,45.68
2023-02-09T00:08:46.759Z,45.09
2023-02-09T00:11:19.516Z,45.27
2023-02-09T00:13:45.987Z,44.74
2023-02-09T00:16:12.935Z,45.77
2023-02-09T00:18:39.772Z,46.08
2023-02-09T00:21:09.534Z,46.20
2023-02-09T00:23:39.642Z,46.45
2023-02-09T00:26:09.464Z,46.72
2023-02-09T00:28:36.761Z,45.52
2023-02-09T00:31:08.723Z,46.35
2023-02-09T00:33:35.726Z,46.35
2023-02-09T00:36:04.872Z,47.46
2023-02-09T00:38:31.583Z,46.32
2023-02-09T00:40:58.072Z,46.24
2023-02-09T00:43:24.538Z,46.58
2023-02-09T00:45:51.104Z,46.48
2023-02-09T00:48:17.626Z,46.34
2023-02-09T00:50:44.568Z,46.69
2023-02-09T00:53:11.351Z,45.97
2023-02-09T00:55:38.007Z,46.31
2023-02-09T00:58:04.482Z,46.42
2023-02-09T01:00:30.975Z,46.53
2023-02-09T01:02:57.779Z,46.40
2023-02-09T01:05:24.371Z,46.85
2023-02-09T01:07:51.298Z,46.69
2023-02-09T01:10:17.858Z,46.79
2023-02-09T01:12:44.890Z,46.87
2023-02-09T01:15:12.172Z,46.31
2023-02-09T01:17:38.772Z,47.78
2023-02-09T01:20:07.316Z,48.49
2023-02-09T01:22:34.000Z,48.82
2023-02-09T01:25:00.521Z,48.51
2023-02-09T01:27:26.986Z,48.53
2023-02-09T01:29:53.466Z,48.84
2023-02-09T01:32:19.940Z,48.33
2023-02-09T01:34:50.645Z,49.16
2023-02-09T01:37:17.319Z,49.18
2023-02-09T01:39:43.896Z,49.30
2023-02-09T01:42:18.955Z,48.77
2023-02-09T01:44:45.348Z,48.75
2023-02-09T01:47:16.849Z,49.06
2023-02-09T01:49:44.995Z,48.75
2023-02-09T01:52:24.216Z,48.00
2023-02-09T01:55:02.953Z,49.42
2023-02-09T01:57:35.353Z,48.66
2023-02-09T02:00:07.878Z,49.55
2023-02-09T02:02:35.162Z,49.04
2023-02-09T02:05:02.357Z,49.46
2023-02-09T02:07:44.253Z,49.38
2023-02-09T02:10:11.297Z,48.86
2023-02-09T02:12:38.594Z,48.35
2023-02-09T02:15:05.995Z,48.24
2023-02-09T02:18:01.203Z,48.59
2023-02-09T02:20:59.392Z,48.32
2023-02-09T02:23:39.805Z,48.79
2023-02-09T02:26:20.699Z,48.62
2023-02-09T02:29:09.800Z,48.61
2023-02-09T02:31:36.268Z,48.46
2023-02-09T02:34:12.273Z,48.57
2023-02-09T02:37:01.796Z,47.81
2023-02-09T02:39:39.537Z,47.81
2023-02-09T02:42:29.721Z,47.65
2023-02-09T02:45:13.737Z,47.29
2023-02-09T02:47:42.718Z,47.77
2023-02-09T02:50:13.895Z,47.50
2023-02-09T02:52:44.007Z,47.35
2023-02-09T02:55:14.673Z,47.43
2023-02-09T02:57:44.561Z,46.98
2023-02-09T03:00:18.269Z,47.68
2023-02-09T03:02:51.735Z,47.97
2023-02-09T03:05:19.526Z,48.22
2023-02-09T03:07:46.057Z,48.38
2023-02-09T03:10:34.543Z,48.58
2023-02-09T03:13:07.924Z,48.29
2023-02-09T03:21:42.697Z,48.17
2023-02-09T03:24:28.133Z,48.65
2023-02-09T03:27:04.905Z,47.23
2023-02-09T03:29:31.757Z,47.67
2023-02-09T03:31:58.568Z,46.85
2023-02-09T03:34:26.620Z,47.92
2023-02-09T03:36:55.054Z,47.13
2023-02-09T03:39:22.124Z,46.49
2023-02-09T03:41:48.756Z,46.00
2023-02-09T03:44:27.354Z,47.10
2023-02-09T03:46:59.773Z,47.16
2023-02-09T03:49:28.131Z,47.15
2023-02-09T03:51:55.060Z,46.81
2023-02-09T03:54:21.745Z,46.08
2023-02-09T03:56:48.595Z,46.72
2023-02-09T03:59:15.116Z,45.93
2023-02-09T04:01:41.660Z,45.19
2023-02-09T04:04:08.690Z,45.88
2023-02-09T04:06:35.300Z,45.50
2023-02-09T04:09:03.557Z,45.83
2023-02-09T04:11:30.293Z,45.45
2023-02-09T04:13:57.335Z,44.98
2023-02-09T04:16:24.157Z,45.12
2023-02-09T04:18:50.891Z,45.82
2023-02-09T04:21:17.547Z,44.97
2023-02-09T04:23:44.125Z,44.93
2023-02-09T04:26:10.833Z,45.29
2023-02-09T04:28:37.341Z,45.09
2023-02-09T04:31:04.269Z,45.29
2023-02-09T04:33:31.230Z,44.86
2023-02-09T04:35:58.124Z,45.11
2023-02-09T04:38:25.943Z,44.52
2023-02-09T04:40:54.070Z,45.39
2023-02-09T04:43:20.881Z,45.16
2023-02-09T04:45:47.463Z,45.68
2023-02-09T04:48:23.424Z,46.09
2023-02-09T04:50:50.228Z,45.77
2023-02-09T04:53:17.084Z,46.79
2023-02-09T04:55:46.016Z,46.22
2023-02-09T04:58:33.214Z,45.79
2023-02-09T05:00:59.905Z,46.09
2023-02-09T05:03:26.568Z,45.75
2023-02-09T05:06:03.361Z,46.71
2023-02-09T05:08:30.241Z,46.11
2023-02-09T05:10:57.161Z,46.01
2023-02-09T05:13:25.608Z,45.42
2023-02-09T05:15:52.885Z,45.76
2023-02-09T05:18:19.643Z,45.09
2023-02-09T05:20:47.726Z,45.90
2023-02-09T05:23:14.489Z,45.79
2023-02-09T05:25:41.829Z,46.28
2023-02-09T05:28:08.912Z,46.38
2023-02-09T05:30:35.453Z,46.98
2023-02-09T05:33:03.177Z,46.71
2023-02-09T05:35:29.944Z,47.28
2023-02-09T05:37:56.785Z,46.64
2023-02-09T05:40:23.533Z,46.25
2023-02-09T05:42:50.080Z,46.72
2023-02-09T05:45:16.723Z,47.12
2023-02-09T05:47:44.093Z,47.14
2023-02-09T05:50:10.807Z,47.53
2023-02-09T05:52:37.320Z,47.18
2023-02-09T05:55:04.187Z,46.60
2023-02-09T05:57:30.767Z,46.70
2023-02-09T05:59:57.267Z,46.19
2023-02-09T06:02:23.805Z,46.93
2023-02-09T06:04:50.316Z,46.73
2023-02-09T06:07:16.851Z,47.29
2023-02-09T06:09:43.397Z,46.57
2023-02-09T06:12:09.952Z,46.52
2023-02-09T06:14:36.510Z,46.84
2023-02-09T06:17:02.979Z,47.11
2023-02-09T06:19:30.686Z,46.71
2023-02-09T06:21:57.279Z,45.73
2023-02-09T06:24:24.155Z,45.61
2023-02-09T06:26:50.652Z,46.45
2023-02-09T06:29:17.262Z,45.38
2023-02-09T06:31:44.147Z,45.42
2023-02-09T06:34:10.804Z,45.66
2023-02-09T06:36:37.295Z,45.17
2023-02-09T06:39:08.131Z,45.07
2023-02-09T06:41:34.800Z,45.33
2023-02-09T06:44:01.299Z,44.58
2023-02-09T06:46:28.684Z,45.02
2023-02-09T06:48:55.641Z,45.78
2023-02-09T06:51:22.325Z,44.79
2023-02-09T06:53:49.219Z,44.28
2023-02-09T06:56:16.046Z,44.21
2023-02-09T06:58:42.704Z,44.27
2023-02-09T07:01:12.769Z,43.98
2023-02-09T07:03:39.367Z,43.13
2023-02-09T07:06:11.888Z,44.37
2023-02-09T07:08:38.760Z,43.55
2023-02-09T07:11:08.549Z,43.48
2023-02-09T07:13:35.678Z,43.05
2023-02-09T07:16:03.837Z,43.54
2023-02-09T07:18:30.728Z,42.87
2023-02-09T07:21:08.724Z,43.97
2023-02-09T07:23:36.222Z,43.47
2023-02-09T07:26:08.293Z,42.42
2023-02-09T07:28:36.278Z,42.59
2023-02-09T07:31:05.190Z,42.18
2023-02-09T07:33:32.196Z,41.58
2023-02-09T07:35:59.238Z,42.65
2023-02-09T07:38:25.956Z,43.60
2023-02-09T07:40:53.221Z,42.80
2023-02-09T07:43:20.017Z,41.77
2023-02-09T07:45:46.954Z,42.86
2023-02-09T07:48:13.693Z,43.11
2023-02-09T07:50:40.674Z,44.29
2023-02-09T07:53:07.729Z,44.16
2023-02-09T07:55:34.328Z,44.80
2023-02-09T07:58:00.967Z,44.45
2023-02-09T08:00:27.625Z,43.20
2023-02-09T08:02:54.815Z,41.92
2023-02-09T08:05:27.158Z,41.78
2023-02-09T08:07:53.821Z,43.43
2023-02-09T08:10:20.423Z,41.73
2023-02-09T08:13:02.766Z,41.34
2023-02-09T08:15:42.546Z,40.54
2023-02-09T08:18:14.913Z,40.06
2023-02-09T08:20:42.503Z,40.19
2023-02-09T08:23:22.034Z,40.13
2023-02-09T08:25:51.464Z,41.28
2023-02-09T08:28:19.492Z,41.58
2023-02-09T08:30:47.225Z,41.05
2023-02-09T08:33:16.978Z,41.97
2023-02-09T08:35:43.981Z,40.74
2023-02-09T08:38:10.789Z,39.93
2023-02-09T08:40:41.451Z,39.21
2023-02-09T08:43:08.678Z,40.03
2023-02-09T08:45:37.050Z,38.93
2023-02-09T08:48:04.324Z,37.51
2023-02-09T08:50:30.848Z,38.22
2023-02-09T08:52:58.009Z,36.58
2023-02-09T08:55:24.753Z,35.55
2023-02-09T08:57:51.602Z,36.70
2023-02-09T09:00:18.617Z,35.73
2023-02-09T09:02:45.290Z,35.36
2023-02-09T09:05:12.046Z,34.01
2023-02-09T09:07:38.701Z,33.21
2023-02-09T09:10:05.945Z,32.28
2023-02-09T09:12:32.655Z,33.63
2023-02-09T09:14:59.326Z,33.33
2023-02-09T09:17:26.815Z,33.44
2023-02-09T09:19:55.863Z,33.93
2023-02-09T09:22:23.410Z,33.94
2023-02-09T09:24:50.000Z,32.79
2023-02-09T09:27:17.153Z,32.55
2023-02-09T09:29:43.918Z,31.32
2023-02-09T09:32:14.026Z,31.03
2023-02-09T09:34:41.242Z,30.31
2023-02-09T09:37:07.836Z,29.60
2023-02-09T09:39:34.460Z,30.07
2023-02-09T09:42:01.212Z,29.39
2023-02-09T09:44:31.924Z,27.99
2023-02-09T09:47:07.499Z,28.04
2023-02-09T09:49:35.070Z,26.09
2023-02-09T09:52:21.148Z,22.74
2023-02-09T09:54:47.687Z,18.82
2023-02-09T09:57:27.024Z,18.54
2023-02-09T09:59:54.931Z,19.17
2023-02-09T10:02:23.549Z,18.08
2023-02-09T10:04:50.398Z,16.53
2023-02-09T10:07:20.799Z,15.06
2023-02-09T10:09:56.030Z,15.44
2023-02-09T10:12:38.769Z,14.74
2023-02-09T10:15:27.905Z,16.18
2023-02-09T10:17:58.446Z,15.51
2023-02-09T10:20:44.418Z,15.46
2023-02-09T10:23:20.161Z,14.47
2023-02-09T10:26:16.872Z,14.27
2023-02-09T10:29:12.452Z,14.92
2023-02-09T10:31:42.598Z,15.12
2023-02-09T10:34:20.853Z,15.44
2023-02-09T10:36:51.951Z,16.10
2023-02-09T10:39:25.822Z,18.65
2023-02-09T10:41:54.681Z,18.16
2023-02-09T10:44:26.486Z,19.10
2023-02-09T10:47:27.117Z,18.13
2023-02-09T10:50:04.607Z,17.45
2023-02-09T10:52:34.215Z,15.87
2023-02-09T10:55:12.125Z,15.01
2023-02-09T10:57:38.929Z,14.85
2023-02-09T11:00:17.751Z,15.23
2023-02-09T11:02:54.302Z,15.97
2023-02-09T11:05:21.149Z,17.89
2023-02-09T11:08:10.951Z,16.67
2023-02-09T11:10:42.248Z,16.62
2023-02-09T11:13:21.712Z,15.01
2023-02-09T11:16:23.632Z,14.92
2023-02-09T11:19:07.197Z,17.44
2023-02-09T11:22:07.498Z,14.63
2023-02-09T11:24:42.934Z,14.55
2023-02-09T11:27:31.123Z,15.33
2023-02-09T11:30:17.492Z,13.96
2023-02-09T11:32:47.708Z,15.31
2023-02-09T11:35:18.982Z,16.07
2023-02-09T11:37:45.482Z,15.10
2023-02-09T11:40:22.370Z,14.44
2023-02-09T11:43:24.028Z,15.53
2023-02-09T11:45:52.543Z,16.92
2023-02-09T11:48:35.497Z,16.86
2023-02-09T11:51:12.011Z,15.30
2023-02-09T11:53:41.413Z,17.26
2023-02-09T11:56:11.090Z,15.44
2023-02-09T11:58:43.642Z,17.75
2023-02-09T12:01:16.810Z,16.65
2023-02-09T12:04:12.339Z,17.78
2023-02-09T12:06:43.357Z,15.54
2023-02-09T12:09:12.038Z,17.55
2023-02-09T12:11:59.912Z,17.29
2023-02-09T12:14:46.574Z,16.48
2023-02-09T12:17:20.892Z,17.05
2023-02-09T12:19:56.615Z,15.56
2023-02-09T12:22:35.481Z,13.99
2023-02-09T12:25:17.414Z,15.23
2023-02-09T12:28:17.449Z,14.46
2023-02-09T12:30:44.594Z,14.54
2023-02-09T12:33:23.384Z,15.33
2023-02-09T12:36:21.637Z,17.22
2023-02-09T12:38:55.993Z,16.04
2023-02-09T12:41:28.557Z,16.19
2023-02-09T12:44:10.404Z,17.05
2023-02-09T12:46:53.001Z,18.87
2023-02-09T12:49:28.773Z,19.23
2023-02-09T12:52:01.315Z,20.63
2023-02-09T12:54:48.181Z,22.37
2023-02-09T12:57:14.707Z,22.49
2023-02-09T12:59:55.140Z,23.36
2023-02-09T13:02:32.493Z,23.40
2023-02-09T13:05:19.392Z,22.40
2023-02-09T13:07:53.492Z,23.60
2023-02-09T13:10:37.776Z,24.82
2023-02-09T13:13:10.597Z,25.40
2023-02-09T13:15:55.379Z,25.34
2023-02-09T13:18:31.801Z,26.04
2023-02-09T13:21:33.816Z,25.98
2023-02-09T13:24:23.718Z,26.01
2023-02-09T13:26:51.588Z,26.81
2023-02-09T13:29:31.069Z,26.88
2023-02-09T13:32:16.061Z,25.86
2023-02-09T13:34:54.786Z,27.37
2023-02-09T13:37:50.313Z,25.88
2023-02-09T13:40:17.613Z,26.11
2023-02-09T13:42:58.747Z,26.28
2023-02-09T13:45:26.934Z,26.46
2023-02-09T13:47:55.403Z,27.18
2023-02-09T13:50:28.293Z,26.95
2023-02-09T13:53:09.139Z,27.17
2023-02-09T13:55:40.975Z,27.59
2023-02-09T13:58:09.464Z,27.94
2023-02-09T14:00:42.956Z,28.87
2023-02-09T14:03:16.834Z,27.93
2023-02-09T14:05:49.367Z,27.43
2023-02-09T14:08:16.757Z,28.28
2023-02-09T14:10:45.920Z,27.46
2023-02-09T14:13:26.988Z,28.20
2023-02-09T14:16:09.402Z,28.14
2023-02-09T14:18:58.365Z,27.90
2023-02-09T14:21:50.069Z,27.11
2023-02-09T14:24:19.653Z,27.76
2023-02-09T14:26:55.614Z,27.65
2023-02-09T14:29:32.638Z,26.79
2023-02-09T14:32:31.930Z,27.44
2023-02-09T14:35:09.000Z,26.34
2023-02-09T14:37:37.460Z,26.57
2023-02-09T14:40:07.169Z,27.31
2023-02-09T14:42:39.164Z,27.71
2023-02-09T14:45:25.950Z,27.59
2023-02-09T14:47:52.504Z,28.17
2023-02-09T14:50:21.987Z,28.91
2023-02-09T14:52:52.145Z,29.42
2023-02-09T14:55:30.003Z,29.74
2023-02-09T14:57:56.788Z,29.72
2023-02-09T15:00:25.641Z,29.66
2023-02-09T15:02:53.033Z,29.58
2023-02-09T15:05:21.170Z,29.75
2023-02-09T15:07:57.956Z,30.50
2023-02-09T15:10:33.197Z,31.06
2023-02-09T15:13:01.989Z,30.47
2023-02-09T15:15:29.075Z,30.73
2023-02-09T15:17:55.981Z,30.88
2023-02-09T15:20:26.298Z,31.39
2023-02-09T15:22:53.611Z,30.48
2023-02-09T15:25:20.400Z,31.07
2023-02-09T15:27:52.046Z,31.76
2023-02-09T15:30:30.902Z,31.85
2023-02-09T15:32:57.856Z,31.92
2023-02-09T15:35:26.125Z,31.33
2023-02-09T15:37:55.318Z,32.03
2023-02-09T15:40:49.673Z,32.14
2023-02-09T15:43:36.689Z,33.14
2023-02-09T15:46:03.891Z,33.05
2023-02-09T15:48:32.199Z,32.63
2023-02-09T15:50:59.182Z,32.56
2023-02-09T15:53:26.803Z,32.73
2023-02-09T15:55:54.468Z,32.04
2023-02-09T15:58:29.105Z,32.86
2023-02-09T16:01:01.552Z,32.47
2023-02-09T16:03:28.128Z,32.46
2023-02-09T16:06:01.833Z,32.51
2023-02-09T16:08:32.465Z,32.64
2023-02-09T16:10:59.851Z,32.34
2023-02-09T16:13:26.764Z,32.38
2023-02-09T16:15:53.632Z,32.71
2023-02-09T16:18:20.307Z,32.77
2023-02-09T16:20:50.415Z,33.42
2023-02-09T16:23:21.248Z,33.33
2023-02-09T16:25:50.755Z,32.99
2023-02-09T16:28:17.667Z,34.27
2023-02-09T16:30:55.873Z,34.34
2023-02-09T16:33:24.725Z,33.73
2023-02-09T16:35:57.217Z,34.14
2023-02-09T16:38:25.058Z,34.02
2023-02-09T16:40:52.682Z,34.12
2023-02-09T16:43:20.027Z,34.20
2023-02-09T16:46:02.392Z,35.14
2023-02-09T16:48:31.889Z,35.56
2023-02-09T16:50:58.825Z,35.99
2023-02-09T16:53:38.270Z,36.30
2023-02-09T16:56:10.019Z,35.78
2023-02-09T16:58:37.152Z,35.96
2023-02-09T17:01:04.130Z,36.51
2023-02-09T17:03:36.200Z,36.11
2023-02-09T17:06:03.221Z,36.90
2023-02-09T17:08:32.701Z,36.93
2023-02-09T17:11:01.280Z,37.37
2023-02-09T17:13:29.062Z,37.57
2023-02-09T17:15:59.413Z,37.50
2023-02-09T17:18:29.955Z,38.04
2023-02-09T17:21:05.320Z,37.65
2023-02-09T17:23:32.095Z,37.18
2023-02-09T17:25:58.968Z,37.50
2023-02-09T17:28:26.760Z,37.98
2023-02-09T17:30:57.420Z,37.93
2023-02-09T17:33:32.572Z,38.61
2023-02-09T17:38:47.069Z,38.94
2023-02-09T17:41:17.109Z,39.77
2023-02-09T17:43:44.127Z,39.77
2023-02-09T17:46:12.665Z,39.77
2023-02-09T17:48:39.505Z,40.20
2023-02-09T17:51:09.492Z,39.70
2023-02-09T17:53:36.374Z,40.97
2023-02-09T17:56:03.068Z,40.85
2023-02-09T17:58:29.663Z,40.84
2023-02-09T18:00:56.750Z,41.08
2023-02-09T18:03:25.895Z,40.57
2023-02-09T18:06:01.671Z,40.89
2023-02-09T18:08:28.459Z,41.94
2023-02-09T18:10:58.578Z,41.63
2023-02-09T18:13:27.028Z,41.79
2023-02-09T18:15:53.585Z,42.61
2023-02-09T18:18:22.023Z,42.38
2023-02-09T18:20:49.675Z,42.20
2023-02-09T18:23:16.643Z,41.08
2023-02-09T18:25:43.312Z,42.16
2023-02-09T18:28:09.861Z,41.67
2023-02-09T18:30:38.604Z,41.74
2023-02-09T18:33:06.801Z,42.35
2023-02-09T18:35:36.169Z,42.18
2023-02-09T18:38:04.286Z,41.50
2023-02-09T18:40:34.474Z,41.54
2023-02-09T18:43:04.328Z,40.65
2023-02-09T18:45:31.375Z,40.07
2023-02-09T18:47:58.056Z,39.60
2023-02-09T18:50:28.156Z,39.59
2023-02-09T18:52:57.251Z,40.44
2023-02-09T18:55:25.847Z,40.73
2023-02-09T18:57:52.561Z,40.44
2023-02-09T19:00:20.381Z,39.26
2023-02-09T19:02:49.563Z,39.16
2023-02-09T19:05:18.371Z,39.29
2023-02-09T19:07:47.073Z,39.89
2023-02-09T19:10:17.076Z,39.58
2023-02-09T19:12:45.261Z,40.21
2023-02-09T19:15:15.858Z,39.43
2023-02-09T19:17:42.617Z,39.64
2023-02-09T19:20:24.201Z,39.87
2023-02-09T19:22:53.652Z,39.44
2023-02-09T19:25:22.674Z,40.29
2023-02-09T19:27:49.265Z,41.01
2023-02-09T19:30:24.904Z,39.97
2023-02-09T19:32:52.790Z,40.21
2023-02-09T19:35:22.919Z,40.31
2023-02-09T19:37:54.386Z,40.28
2023-02-09T19:40:28.009Z,40.46
2023-02-09T19:42:56.150Z,39.85
2023-02-09T19:45:23.549Z,40.08
2023-02-09T19:47:50.337Z,40.41
2023-02-09T19:50:17.555Z,41.99
2023-02-09T19:52:47.444Z,42.05
2023-02-09T19:55:14.917Z,41.78
2023-02-09T19:57:42.693Z,41.90
2023-02-09T20:00:14.716Z,41.87
2023-02-09T20:02:41.473Z,42.12
2023-02-09T20:05:08.515Z,41.99
2023-02-09T20:07:35.162Z,42.07
2023-02-09T20:10:02.058Z,42.10
2023-02-09T20:12:28.723Z,42.15
2023-02-09T20:14:55.285Z,43.00
2023-02-09T20:17:22.536Z,42.94
2023-02-09T20:19:49.178Z,43.40
2023-02-09T20:22:15.782Z,43.57
2023-02-09T20:24:44.109Z,44.87
2023-02-09T20:27:11.240Z,45.25
2023-02-09T20:29:39.296Z,45.52
2023-02-09T20:32:06.251Z,47.25
2023-02-09T20:34:33.175Z,49.25
2023-02-09T20:36:59.804Z,49.02
2023-02-09T20:39:26.354Z,51.32
2023-02-09T20:42:16.564Z,52.59
2023-02-09T20:45:02.266Z,53.44
2023-02-09T20:47:30.105Z,55.58
2023-02-09T20:49:59.904Z,56.10
2023-02-09T20:52:28.703Z,56.82
2023-02-09T20:54:55.843Z,58.34
2023-02-09T20:57:29.276Z,59.84
2023-02-09T20:59:59.754Z,61.20
2023-02-09T21:02:27.144Z,61.77
2023-02-09T21:04:55.154Z,61.38
2023-02-09T21:07:21.801Z,62.46
2023-02-09T21:09:48.394Z,62.28
2023-02-09T21:12:15.025Z,61.25
2023-02-09T21:14:45.035Z,60.47
2023-02-09T21:17:12.442Z,59.46
2023-02-09T21:19:39.043Z,58.85
2023-02-09T21:22:06.251Z,59.78
2023-02-09T21:24:33.239Z,60.52
2023-02-09T21:27:02.983Z,61.46
2023-02-09T21:29:29.632Z,63.00
2023-02-09T21:31:56.476Z,62.33
2023-02-09T21:34:23.124Z,62.36
2023-02-09T21:36:49.652Z,61.66
2023-02-09T21:39:16.242Z,60.66
2023-02-09T21:42:01.354Z,60.49
2023-02-09T21:44:28.584Z,59.43
2023-02-09T21:46:55.222Z,60.05
2023-02-09T21:49:22.181Z,59.93
2023-02-09T21:51:48.896Z,60.98
2023-02-09T21:54:16.796Z,60.94
2023-02-09T21:56:43.414Z,61.29
2023-02-09T21:59:10.335Z,61.50
2023-02-09T22:01:37.561Z,62.40
2023-02-09T22:04:04.501Z,62.27
2023-02-09T22:06:31.501Z,62.40
2023-02-09T22:09:00.452Z,62.57
2023-02-09T22:11:27.180Z,62.56
2023-02-09T22:13:53.951Z,62.12
2023-02-09T22:16:22.355Z,61.88
2023-02-09T22:18:49.283Z,62.09
2023-02-09T22:21:16.601Z,61.96
2023-02-09T22:23:43.355Z,61.22
2023-02-09T22:26:10.598Z,61.60
2023-02-09T22:28:37.662Z,61.75
2023-02-09T22:31:13.135Z,61.85
2023-02-09T22:33:39.902Z,61.88
2023-02-09T22:36:08.164Z,61.69
2023-02-09T22:38:35.989Z,62.41
2023-02-09T22:41:07.509Z,61.94
2023-02-09T22:43:35.034Z,62.60
2023-02-09T22:46:01.796Z,62.23
2023-02-09T22:48:39.378Z,62.04
2023-02-09T22:51:06.459Z,61.74
2023-02-09T22:53:33.828Z,61.00
2023-02-09T22:56:04.847Z,61.34
2023-02-09T22:58:31.712Z,60.40
2023-02-09T23:00:58.246Z,60.88
2023-02-09T23:03:24.870Z,60.76
2023-02-09T23:05:51.525Z,59.90
2023-02-09T23:08:18.030Z,59.94
2023-02-09T23:10:44.538Z,60.30
2023-02-09T23:13:11.236Z,60.09
2023-02-09T23:15:38.008Z,59.06
2023-02-09T23:18:04.752Z,58.32
2023-02-09T23:20:31.294Z,57.99
2023-02-09T23:23:01.390Z,57.67
2023-02-09T23:25:28.599Z,57.88
2023-02-09T23:27:55.230Z,56.52
2023-02-09T23:30:21.876Z,56.37
2023-02-09T23:32:49.355Z,56.52
2023-02-09T23:35:17.554Z,57.31
2023-02-09T23:37:44.173Z,57.62
2023-02-09T23:40:11.196Z,56.83
2023-02-09T23:42:37.780Z,56.33
2023-02-09T23:45:06.380Z,56.24
2023-02-09T23:47:33.027Z,57.49
2023-02-09T23:49:59.508Z,56.23
2023-02-09T23:52:26.072Z,55.85
2023-02-09T23:54:52.630Z,55.65
2023-02-09T23:57:20.170Z,55.11
2023-02-09T23:59:46.891Z,55.78
